Time;durP1;ratioP1;P1;durP2;ratioP2;P2;SDS_P1;SDS_P2;PMS_P1;PMS_P2;Temp;Humidity;BMP_temperature;BMP_pressure;BME280_temperature;BME280_humidity;BME280_pressure;Samples;Min_cycle;Max_cycle;Signal;HPM_P1;HPM_P2
2024/04/20 00:01:54;;;;;;;;;;;4.60;99.90;;;;;;5452374;26;19924;-76
2024/04/20 00:04:20;;;;;;;;;;;4.60;99.90;;;;;;5452274;26;19948;-75
2024/04/20 00:06:45;;;;;;;;;;;4.60;99.90;;;;;;5451789;26;19932;-75
2024/04/20 00:09:11;;;;;;;;;;;4.60;99.90;;;;;;5452096;26;20326;-75
2024/04/20 00:11:36;;;;;;;;;;;4.60;99.90;;;;;;5451881;26;20000;-74
2024/04/20 00:14:02;;;;;;;;;;;4.60;99.90;;;;;;5452466;26;20322;-75
2024/04/20 00:16:29;;;;;;;;;;;4.60;99.90;;;;;;5452772;26;19933;-76
2024/04/20 00:18:54;;;;;;;;;;;4.60;99.90;;;;;;5452168;26;19924;-75
2024/04/20 00:21:20;;;;;;;;;;;4.60;99.90;;;;;;5451708;26;20018;-75
2024/04/20 00:23:45;;;;;;;;;;;4.60;99.90;;;;;;5451564;26;19932;-75
2024/04/20 00:26:12;;;;;;;;;;;4.50;99.90;;;;;;5451531;26;19925;-74
2024/04/20 00:28:37;;;;;;;;;;;4.50;99.90;;;;;;5451451;26;19992;-76
2024/04/20 00:31:03;;;;;;;;;;;4.50;99.90;;;;;;5451805;26;20766;-75
2024/04/20 00:33:29;;;;;;;;;;;4.50;99.90;;;;;;5450127;26;20253;-75
2024/04/20 00:35:54;;;;;;;;;;;4.50;99.90;;;;;;5450065;26;20349;-75
2024/04/20 00:38:20;;;;;;;;;;;4.50;99.90;;;;;;5451205;26;19924;-75
2024/04/20 00:40:55;;;;;;;;;;;4.50;99.90;;;;;;5450009;26;19932;-75
2024/04/20 00:43:22;;;;;;;;;;;4.50;99.90;;;;;;5451225;26;19931;-75
2024/04/20 00:45:48;;;;;;;;;;;4.50;99.90;;;;;;5449485;26;19932;-76
2024/04/20 00:48:14;;;;;;;;;;;4.50;99.90;;;;;;5451479;26;19924;-74
2024/04/20 00:50:40;;;;;;;;;;;4.50;99.90;;;;;;5450947;26;19924;-74
2024/04/20 00:53:08;;;;;;;;;;;4.50;99.90;;;;;;5451081;26;19931;-76
2024/04/20 00:55:33;;;;;;;;;;;4.50;99.90;;;;;;5451441;26;19924;-74
2024/04/20 00:58:00;;;;;;;;;;;4.60;99.90;;;;;;5451481;26;20250;-75
2024/04/20 01:00:27;;;;;;;;;;;4.60;99.90;;;;;;5449552;26;19924;-75
2024/04/20 01:02:53;;;;;;;;;;;4.70;99.90;;;;;;5451825;26;19980;-76
2024/04/20 01:05:19;;;;;;;;;;;4.70;99.90;;;;;;5451053;26;19925;-74
2024/04/20 01:07:44;;;;;;;;;;;4.80;99.90;;;;;;5451477;26;19997;-73
2024/04/20 01:10:10;;;;;;;;;;;4.90;99.90;;;;;;5450681;26;19925;-74
2024/04/20 01:12:36;;;;;;;;;;;4.90;99.90;;;;;;5451355;26;19931;-75
2024/04/20 01:15:02;;;;;;;;;;;5.00;99.90;;;;;;5444113;26;20392;-75
2024/04/20 01:17:27;;;;;;;;;;;5.00;99.90;;;;;;5450519;26;19925;-74
2024/04/20 01:19:53;;;;;;;;;;;5.10;99.90;;;;;;5451604;26;20368;-75
2024/04/20 01:22:19;;;;;;;;;;;5.10;99.90;;;;;;5451183;26;20386;-74
2024/04/20 01:24:45;;;;;;;;;;;5.20;99.90;;;;;;5419799;26;19932;-75
2024/04/20 01:27:10;;;;;;;;;;;5.20;99.90;;;;;;5449739;26;19931;-75
2024/04/20 01:29:36;;;;;;;;;;;5.30;99.90;;;;;;5451307;26;19936;-75
2024/04/20 01:32:02;;;;;;;;;;;5.30;99.90;;;;;;5451856;26;20357;-75
2024/04/20 01:34:27;;;;;;;;;;;5.40;99.90;;;;;;5451103;26;20548;-75
2024/04/20 01:36:53;;;;;;;;;;;5.50;99.90;;;;;;5451837;26;19931;-75
2024/04/20 01:39:18;;;;;;;;;;;5.40;99.90;;;;;;5448847;26;19924;-74
2024/04/20 01:41:46;;;;;;;;;;;5.50;99.90;;;;;;5448870;26;19936;-75
2024/04/20 01:44:12;;;;;;;;;;;5.50;99.90;;;;;;5452303;26;20351;-75
2024/04/20 01:46:37;;;;;;;;;;;5.40;99.90;;;;;;5456407;26;20380;-75
2024/04/20 01:49:03;;;;;;;;;;;5.30;99.90;;;;;;5453615;26;19924;-76
2024/04/20 01:51:28;;;;;;;;;;;5.30;99.90;;;;;;5452444;26;19956;-75
2024/04/20 01:53:55;;;;;;;;;;;5.30;99.90;;;;;;5453999;26;19924;-75
2024/04/20 01:56:21;;;;;;;;;;;5.20;99.90;;;;;;5424335;26;19924;-76
2024/04/20 01:58:46;;;;;;;;;;;5.20;99.90;;;;;;5455151;26;19931;-76
2024/04/20 02:01:12;;;;;;;;;;;5.20;99.90;;;;;;5449217;26;20385;-75
2024/04/20 02:03:38;;;;;;;;;;;5.20;99.90;;;;;;5450720;26;19940;-76
2024/04/20 02:06:03;;;;;;;;;;;5.20;99.90;;;;;;5417986;26;19925;-75
2024/04/20 02:08:29;;;;;;;;;;;5.20;99.90;;;;;;5450062;26;19997;-75
2024/04/20 02:10:55;;;;;;;;;;;5.10;99.90;;;;;;5417992;26;19948;-75
2024/04/20 02:13:20;;;;;;;;;;;5.10;99.90;;;;;;5447752;26;19924;-75
2024/04/20 02:15:46;;;;;;;;;;;5.10;99.90;;;;;;5447555;26;19925;-75
2024/04/20 02:18:12;;;;;;;;;;;5.00;99.90;;;;;;5450180;26;20005;-75
2024/04/20 02:20:37;;;;;;;;;;;4.90;99.90;;;;;;5449270;26;19924;-74
2024/04/20 02:23:03;;;;;;;;;;;4.80;99.90;;;;;;5447978;26;19924;-75
2024/04/20 02:25:28;;;;;;;;;;;4.80;99.90;;;;;;5449773;26;19924;-75
2024/04/20 02:27:54;;;;;;;;;;;4.70;99.90;;;;;;5450237;26;19931;-75
2024/04/20 02:30:20;;;;;;;;;;;4.70;99.90;;;;;;5418049;26;19960;-75
2024/04/20 02:32:45;;;;;;;;;;;4.80;99.90;;;;;;5449939;26;19997;-74
2024/04/20 02:35:11;;;;;;;;;;;4.80;99.90;;;;;;5449641;26;19948;-75
2024/04/20 02:37:37;;;;;;;;;;;4.80;99.90;;;;;;5449716;26;19924;-75
2024/04/20 02:40:03;;;;;;;;;;;4.80;99.90;;;;;;5449539;26;20433;-76
2024/04/20 02:42:29;;;;;;;;;;;4.90;99.90;;;;;;5449460;26;19956;-75
2024/04/20 02:44:55;;;;;;;;;;;4.90;99.90;;;;;;5447059;26;20411;-75
2024/04/20 02:47:20;;;;;;;;;;;4.90;99.90;;;;;;5449092;26;20323;-75
2024/04/20 02:49:46;;;;;;;;;;;4.90;99.90;;;;;;5450648;26;20262;-75
2024/04/20 02:52:11;;;;;;;;;;;4.90;99.90;;;;;;5452893;26;19932;-74
2024/04/20 02:54:37;;;;;;;;;;;4.90;99.90;;;;;;5452970;26;19925;-75
2024/04/20 02:57:02;;;;;;;;;;;5.00;99.90;;;;;;5453130;26;20261;-75
2024/04/20 02:59:28;;;;;;;;;;;5.10;99.90;;;;;;5452825;26;19932;-75
2024/04/20 03:01:53;;;;;;;;;;;5.10;99.90;;;;;;5452894;26;19932;-72
2024/04/20 03:04:19;;;;;;;;;;;5.10;99.90;;;;;;5453216;26;19944;-75
2024/04/20 03:06:45;;;;;;;;;;;5.00;99.90;;;;;;5450677;26;19924;-75
2024/04/20 03:09:10;;;;;;;;;;;5.10;99.90;;;;;;5453030;26;19924;-75
2024/04/20 03:11:36;;;;;;;;;;;5.00;99.90;;;;;;5452939;26;19933;-75
2024/04/20 03:14:01;;;;;;;;;;;5.00;99.90;;;;;;5450896;26;19924;-75
2024/04/20 03:16:27;;;;;;;;;;;5.00;99.90;;;;;;5452582;26;19925;-75
2024/04/20 03:18:52;;;;;;;;;;;5.00;99.90;;;;;;5452945;26;20000;-75
2024/04/20 03:21:18;;;;;;;;;;;5.00;99.90;;;;;;5452868;26;19932;-76
2024/04/20 03:23:44;;;;;;;;;;;5.00;99.90;;;;;;5452678;26;19997;-75
2024/04/20 03:26:11;;;;;;;;;;;5.00;99.90;;;;;;5452649;26;19972;-75
2024/04/20 03:28:36;;;;;;;;;;;5.10;99.90;;;;;;5453015;26;20353;-75
2024/04/20 03:31:02;;;;;;;;;;;5.10;99.90;;;;;;5452629;26;19932;-75
2024/04/20 03:33:30;;;;;;;;;;;5.10;99.90;;;;;;5420575;26;20350;-74
2024/04/20 03:35:58;;;;;;;;;;;5.10;99.90;;;;;;5452625;26;19935;-75
2024/04/20 03:38:24;;;;;;;;;;;5.10;99.90;;;;;;5452785;26;19953;-74
2024/04/20 03:40:50;;;;;;;;;;;5.20;99.90;;;;;;5452660;26;20265;-75
2024/04/20 03:43:15;;;;;;;;;;;5.20;99.90;;;;;;5452923;26;20265;-75
2024/04/20 03:45:41;;;;;;;;;;;5.20;99.90;;;;;;5453011;26;20322;-74
2024/04/20 03:48:06;;;;;;;;;;;5.20;99.90;;;;;;5452585;26;19956;-74
2024/04/20 03:50:32;;;;;;;;;;;5.20;99.90;;;;;;5453023;26;19925;-75
2024/04/20 03:52:57;;;;;;;;;;;5.20;99.90;;;;;;5451027;26;19924;-75
2024/04/20 03:55:23;;;;;;;;;;;5.30;99.90;;;;;;5452176;26;20069;-75
2024/04/20 03:57:48;;;;;;;;;;;5.30;99.90;;;;;;5452337;26;19935;-75
2024/04/20 04:00:14;;;;;;;;;;;5.30;99.90;;;;;;5453414;26;19925;-75
2024/04/20 04:02:39;;;;;;;;;;;5.40;99.90;;;;;;5452095;26;19931;-74
2024/04/20 04:05:05;;;;;;;;;;;5.40;99.90;;;;;;5452832;26;20005;-75
2024/04/20 04:07:31;;;;;;;;;;;5.40;99.90;;;;;;5453354;26;19932;-75
2024/04/20 04:09:56;;;;;;;;;;;5.40;99.90;;;;;;5452404;26;19936;-75
2024/04/20 04:12:22;;;;;;;;;;;5.50;99.90;;;;;;5451467;26;19931;-75
2024/04/20 04:14:47;;;;;;;;;;;5.50;99.90;;;;;;5451746;26;19932;-76
2024/04/20 04:17:13;;;;;;;;;;;5.60;99.90;;;;;;5420197;26;19925;-75
2024/04/20 04:19:38;;;;;;;;;;;5.60;99.90;;;;;;5420542;26;19924;-75
2024/04/20 04:22:04;;;;;;;;;;;5.70;99.90;;;;;;5450101;26;19924;-76
2024/04/20 04:24:30;;;;;;;;;;;5.70;99.90;;;;;;5452232;26;19931;-75
2024/04/20 04:27:16;;;;;;;;;;;5.70;99.90;;;;;;5452303;26;19924;-75
2024/04/20 04:29:42;;;;;;;;;;;5.80;99.90;;;;;;5450441;26;20061;-75
2024/04/20 04:32:08;;;;;;;;;;;5.80;99.90;;;;;;5420272;26;19984;-74
2024/04/20 04:34:34;;;;;;;;;;;5.80;99.90;;;;;;5451969;26;19932;-76
2024/04/20 04:36:59;;;;;;;;;;;5.90;99.90;;;;;;5452320;26;20479;-75
2024/04/20 04:39:25;;;;;;;;;;;5.90;99.90;;;;;;5420093;26;19936;-75
2024/04/20 04:41:51;;;;;;;;;;;5.90;99.90;;;;;;5452421;26;20252;-74
2024/04/20 04:44:16;;;;;;;;;;;6.00;99.90;;;;;;5419968;26;19924;-74
2024/04/20 04:46:42;;;;;;;;;;;6.00;99.90;;;;;;5450074;26;19932;-74
2024/04/20 04:49:07;;;;;;;;;;;6.10;99.90;;;;;;5452105;26;19924;-75
2024/04/20 04:51:33;;;;;;;;;;;6.20;99.90;;;;;;5451630;26;19949;-75
2024/04/20 04:53:58;;;;;;;;;;;6.20;99.90;;;;;;5452024;26;20273;-75
2024/04/20 04:56:26;;;;;;;;;;;6.20;99.90;;;;;;5451958;26;19939;-75
2024/04/20 04:58:55;;;;;;;;;;;6.30;99.90;;;;;;5451384;26;19932;-74
2024/04/20 05:01:20;;;;;;;;;;;6.40;99.90;;;;;;5451944;26;19925;-75
2024/04/20 05:03:46;;;;;;;;;;;6.50;99.90;;;;;;5420083;26;20262;-75
2024/04/20 05:06:11;;;;;;;;;;;6.70;99.90;;;;;;5451442;26;20358;-75
2024/04/20 05:08:37;;;;;;;;;;;6.80;99.90;;;;;;5456177;26;19932;-74
2024/04/20 05:11:02;;;;;;;;;;;7.00;99.90;;;;;;5455534;26;19924;-75
2024/04/20 05:13:28;;;;;;;;;;;7.10;99.90;;;;;;5451094;26;19924;-79
2024/04/20 05:15:53;;;;;;;;;;;7.30;99.90;;;;;;5424847;26;20358;-74
2024/04/20 05:18:20;;;;;;;;;;;7.50;99.90;;;;;;5454273;26;19931;-76
2024/04/20 05:20:46;;;;;;;;;;;7.80;99.90;;;;;;5452149;26;19931;-73
2024/04/20 05:23:13;;;;;;;;;;;8.30;99.90;;;;;;5450870;26;19925;-73
2024/04/20 05:25:39;;;;;;;;;;;8.50;99.90;;;;;;5450731;26;19931;-72
2024/04/20 05:28:04;;;;;;;;;;;8.80;99.90;;;;;;5450310;26;19959;-72
2024/04/20 05:30:30;;;;;;;;;;;9.10;99.90;;;;;;5450121;26;19931;-72
2024/04/20 05:32:55;;;;;;;;;;;9.30;99.90;;;;;;5418353;26;19925;-72
2024/04/20 05:35:21;;;;;;;;;;;9.50;99.90;;;;;;5449897;26;19997;-73
2024/04/20 05:37:47;;;;;;;;;;;9.90;99.90;;;;;;5450224;26;20191;-73
2024/04/20 05:40:13;;;;;;;;;;;10.40;98.30;;;;;;5450215;26;20253;-74
2024/04/20 05:42:38;;;;;;;;;;;11.20;93.60;;;;;;5418382;26;20302;-73
2024/04/20 05:45:04;;;;;;;;;;;12.20;91.60;;;;;;5449979;26;19985;-74
2024/04/20 05:47:29;;;;;;;;;;;12.90;83.80;;;;;;5449905;26;19936;-74
2024/04/20 05:49:55;;;;;;;;;;;14.00;75.20;;;;;;5449985;26;20373;-75
2024/04/20 05:52:21;;;;;;;;;;;15.10;55.30;;;;;;5449849;26;19925;-74
2024/04/20 05:54:47;;;;;;;;;;;15.30;48.10;;;;;;5449788;26;19924;-74
2024/04/20 05:57:13;;;;;;;;;;;15.10;47.80;;;;;;5450011;26;19924;-74
2024/04/20 05:59:38;;;;;;;;;;;14.90;47.20;;;;;;5449616;26;20372;-74
2024/04/20 06:02:04;;;;;;;;;;;15.10;46.00;;;;;;5417990;26;19924;-74
2024/04/20 06:04:30;;;;;;;;;;;15.30;44.30;;;;;;5449955;26;20393;-74
2024/04/20 06:06:56;;;;;;;;;;;16.10;41.90;;;;;;5449520;26;19931;-74
2024/04/20 06:09:21;;;;;;;;;;;16.60;40.00;;;;;;5449918;26;19928;-74
2024/04/20 06:11:47;;;;;;;;;;;17.30;39.40;;;;;;5449666;26;19978;-74
2024/04/20 06:14:13;;;;;;;;;;;18.00;35.40;;;;;;5447491;26;19966;-73
2024/04/20 06:16:39;;;;;;;;;;;18.70;34.30;;;;;;5449590;26;19924;-74
2024/04/20 06:19:05;;;;;;;;;;;19.40;32.60;;;;;;5449361;26;19932;-74
2024/04/20 06:21:30;;;;;;;;;;;19.80;31.20;;;;;;5449357;26;19925;-74
2024/04/20 06:23:56;;;;;;;;;;;19.90;30.00;;;;;;5447653;26;19925;-74
2024/04/20 06:26:22;;;;;;;;;;;20.10;29.30;;;;;;5452915;26;19967;-74
2024/04/20 06:28:48;;;;;;;;;;;19.70;30.00;;;;;;5452865;26;20001;-74
2024/04/20 06:31:13;;;;;;;;;;;19.60;30.00;;;;;;5452413;26;19932;-74
2024/04/20 06:33:39;;;;;;;;;;;19.30;30.50;;;;;;5452296;26;19932;-73
2024/04/20 06:36:05;;;;;;;;;;;19.40;30.40;;;;;;5452546;26;19930;-74
2024/04/20 06:38:30;;;;;;;;;;;19.50;30.30;;;;;;5452546;26;19931;-75
2024/04/20 06:40:56;;;;;;;;;;;19.10;30.50;;;;;;5452409;26;19933;-74
2024/04/20 06:43:22;;;;;;;;;;;18.70;30.70;;;;;;5420953;26;20350;-74
2024/04/20 06:45:47;;;;;;;;;;;18.80;31.40;;;;;;5452421;26;19931;-74
2024/04/20 06:48:14;;;;;;;;;;;18.90;31.80;;;;;;5420816;26;19961;-74
2024/04/20 06:50:39;;;;;;;;;;;19.20;31.40;;;;;;5452515;26;20680;-74
2024/04/20 06:53:05;;;;;;;;;;;19.20;31.60;;;;;;5452384;26;19924;-74
2024/04/20 06:55:30;;;;;;;;;;;18.70;31.40;;;;;;5452334;26;19925;-74
2024/04/20 06:57:56;;;;;;;;;;;18.00;32.90;;;;;;5420432;26;19925;-74
2024/04/20 07:00:21;;;;;;;;;;;17.40;33.70;;;;;;5451185;26;19931;-74
2024/04/20 07:02:47;;;;;;;;;;;17.60;34.80;;;;;;5450301;26;19925;-74
2024/04/20 07:05:12;;;;;;;;;;;18.00;35.20;;;;;;5452505;26;19924;-74
2024/04/20 07:07:38;;;;;;;;;;;18.40;34.40;;;;;;5452082;26;19992;-74
2024/04/20 07:10:03;;;;;;;;;;;18.70;33.70;;;;;;5452244;26;19932;-74
2024/04/20 07:12:29;;;;;;;;;;;19.40;32.80;;;;;;5451979;26;20364;-75
2024/04/20 07:14:55;;;;;;;;;;;19.90;31.50;;;;;;5452035;26;19924;-74
2024/04/20 07:17:20;;;;;;;;;;;20.00;31.00;;;;;;5420267;26;19949;-74
2024/04/20 07:19:46;;;;;;;;;;;20.10;30.80;;;;;;5452026;26;19924;-75
2024/04/20 07:22:11;;;;;;;;;;;20.40;31.40;;;;;;5452010;26;19947;-74
2024/04/20 07:24:37;;;;;;;;;;;20.70;30.30;;;;;;5452063;26;19931;-75
2024/04/20 07:27:02;;;;;;;;;;;20.90;29.80;;;;;;5451994;26;19931;-74
2024/04/20 07:29:28;;;;;;;;;;;21.10;29.70;;;;;;5451913;26;20246;-74
2024/04/20 07:31:54;;;;;;;;;;;21.20;29.80;;;;;;5452038;26;19960;-74
2024/04/20 07:34:25;;;;;;;;;;;20.80;29.80;;;;;;5451875;26;20353;-74
2024/04/20 07:36:51;;;;;;;;;;;20.30;30.90;;;;;;5451133;26;19924;-74
2024/04/20 07:39:16;;;;;;;;;;;19.90;31.10;;;;;;5452162;26;19932;-74
2024/04/20 07:41:42;;;;;;;;;;;19.40;32.20;;;;;;5451801;26;20246;-73
2024/04/20 07:44:07;;;;;;;;;;;18.90;34.00;;;;;;5451633;26;20257;-74
2024/04/20 07:46:33;;;;;;;;;;;18.80;34.40;;;;;;5451863;26;20252;-74
2024/04/20 07:48:58;;;;;;;;;;;18.60;35.40;;;;;;5449862;26;20357;-74
2024/04/20 07:51:24;;;;;;;;;;;18.20;36.40;;;;;;5419907;26;20355;-73
2024/04/20 07:53:50;;;;;;;;;;;18.40;36.50;;;;;;5451874;26;20357;-75
2024/04/20 07:56:15;;;;;;;;;;;18.70;36.80;;;;;;5451406;26;19924;-74
2024/04/20 07:58:41;;;;;;;;;;;18.50;37.80;;;;;;5451592;26;19932;-74
2024/04/20 08:01:06;;;;;;;;;;;18.90;37.40;;;;;;5449315;26;19924;-74
2024/04/20 08:03:32;;;;;;;;;;;19.30;36.30;;;;;;5451551;26;19925;-75
2024/04/20 08:05:57;;;;;;;;;;;20.20;35.20;;;;;;5451562;26;19932;-74
2024/04/20 08:08:23;;;;;;;;;;;20.80;33.80;;;;;;5451377;26;20485;-73
2024/04/20 08:10:48;;;;;;;;;;;20.90;34.50;;;;;;5451134;26;19924;-74
2024/04/20 08:13:14;;;;;;;;;;;21.50;33.50;;;;;;5449429;26;19973;-74
2024/04/20 08:15:39;;;;;;;;;;;21.20;33.10;;;;;;5451186;26;19925;-74
2024/04/20 08:18:05;;;;;;;;;;;21.30;33.20;;;;;;5451392;26;19924;-75
2024/04/20 08:20:30;;;;;;;;;;;21.10;34.10;;;;;;5451254;26;19925;-75
2024/04/20 08:22:56;;;;;;;;;;;21.30;34.20;;;;;;5451391;26;19924;-75
2024/04/20 08:25:21;;;;;;;;;;;21.30;33.40;;;;;;5451185;26;19924;-74
2024/04/20 08:27:47;;;;;;;;;;;21.20;33.80;;;;;;5451612;26;19924;-74
2024/04/20 08:30:13;;;;;;;;;;;20.80;34.10;;;;;;5451095;26;19924;-74
2024/04/20 08:32:38;;;;;;;;;;;20.60;35.20;;;;;;5449343;26;19924;-73
2024/04/20 08:35:04;;;;;;;;;;;20.20;35.60;;;;;;5450967;26;19935;-74
2024/04/20 08:37:29;;;;;;;;;;;19.60;36.40;;;;;;5451113;26;19962;-75
2024/04/20 08:39:55;;;;;;;;;;;18.90;38.30;;;;;;5451311;26;19925;-74
2024/04/20 08:42:21;;;;;;;;;;;18.20;39.80;;;;;;5451067;26;19924;-74
2024/04/20 08:44:48;;;;;;;;;;;17.90;40.10;;;;;;5419001;26;19936;-75
2024/04/20 08:47:14;;;;;;;;;;;17.40;42.50;;;;;;5448827;26;19935;-74
2024/04/20 08:49:41;;;;;;;;;;;17.20;41.60;;;;;;5450780;26;19925;-73
2024/04/20 08:52:07;;;;;;;;;;;17.00;42.50;;;;;;5450933;26;19936;-73
2024/04/20 08:54:34;;;;;;;;;;;17.00;43.50;;;;;;5450580;26;19931;-74
2024/04/20 08:57:01;;;;;;;;;;;16.80;43.80;;;;;;5418924;26;19936;-74
2024/04/20 08:59:27;;;;;;;;;;;16.70;44.40;;;;;;5450704;26;19935;-74
2024/04/20 09:01:54;;;;;;;;;;;16.50;45.10;;;;;;5450780;26;20357;-74
2024/04/20 09:04:20;;;;;;;;;;;16.40;45.10;;;;;;5450852;26;19997;-74
2024/04/20 09:06:46;;;;;;;;;;;16.20;45.40;;;;;;5450716;26;20302;-74
2024/04/20 09:09:12;;;;;;;;;;;15.80;45.20;;;;;;5451103;26;19924;-74
2024/04/20 09:11:38;;;;;;;;;;;15.70;46.00;;;;;;5450690;26;19924;-74
2024/04/20 09:14:03;;;;;;;;;;;15.50;46.80;;;;;;5419019;26;20417;-74
2024/04/20 09:16:33;;;;;;;;;;;15.30;47.00;;;;;;5418859;26;19931;-75
2024/04/20 09:19:03;;;;;;;;;;;15.40;47.40;;;;;;5418547;26;19932;-74
2024/04/20 09:21:29;;;;;;;;;;;15.70;47.30;;;;;;5450760;26;20361;-74
2024/04/20 09:24:06;;;;;;;;;;;16.20;45.50;;;;;;5450372;26;19924;-74
2024/04/20 09:26:32;;;;;;;;;;;16.70;44.70;;;;;;5450509;26;19924;-73
2024/04/20 09:28:59;;;;;;;;;;;16.90;44.20;;;;;;5450316;26;19932;-74
2024/04/20 09:31:27;;;;;;;;;;;17.10;42.90;;;;;;5448385;26;19925;-74
2024/04/20 09:33:56;;;;;;;;;;;17.00;43.00;;;;;;5450066;26;20260;-74
2024/04/20 09:36:21;;;;;;;;;;;16.90;43.70;;;;;;5450293;26;19972;-74
2024/04/20 09:38:47;;;;;;;;;;;16.80;42.70;;;;;;5418605;26;19931;-74
2024/04/20 09:41:14;;;;;;;;;;;16.50;42.50;;;;;;5450309;26;20443;-74
2024/04/20 09:43:41;;;;;;;;;;;16.20;42.90;;;;;;5450336;26;20354;-74
2024/04/20 09:46:07;;;;;;;;;;;15.80;45.10;;;;;;5450113;26;19925;-73
2024/04/20 09:48:33;;;;;;;;;;;15.70;45.80;;;;;;5450044;26;20339;-74
2024/04/20 09:51:05;;;;;;;;;;;15.80;46.50;;;;;;5418214;26;19931;-74
2024/04/20 09:53:36;;;;;;;;;;;15.60;47.70;;;;;;5449954;26;20353;-75
2024/04/20 09:56:02;;;;;;;;;;;15.70;47.40;;;;;;5449975;26;19932;-74
2024/04/20 09:58:31;;;;;;;;;;;15.70;47.90;;;;;;5450016;26;19943;-74
2024/04/20 10:00:58;;;;;;;;;;;15.60;48.30;;;;;;5449499;26;19924;-74
2024/04/20 10:03:25;;;;;;;;;;;15.60;48.60;;;;;;5448024;26;19993;-74
2024/04/20 10:05:51;;;;;;;;;;;15.50;47.00;;;;;;5449729;26;19952;-75
2024/04/20 10:08:17;;;;;;;;;;;15.70;45.30;;;;;;5417920;26;19931;-74
2024/04/20 10:10:45;;;;;;;;;;;15.90;44.10;;;;;;5449445;26;19952;-74
2024/04/20 10:13:12;;;;;;;;;;;16.20;44.10;;;;;;5449645;26;19924;-74
2024/04/20 10:15:38;;;;;;;;;;;16.50;42.10;;;;;;5449377;26;19924;-74
2024/04/20 10:18:04;;;;;;;;;;;16.60;41.40;;;;;;5417557;26;19924;-74
2024/04/20 10:20:33;;;;;;;;;;;16.30;42.70;;;;;;5449395;26;20356;-72
2024/04/20 10:23:00;;;;;;;;;;;16.20;42.40;;;;;;5449362;26;19924;-74
2024/04/20 10:25:29;;;;;;;;;;;16.10;43.10;;;;;;5449417;26;19932;-74
2024/04/20 10:27:55;;;;;;;;;;;16.10;44.00;;;;;;5417424;26;19924;-72
2024/04/20 10:30:22;;;;;;;;;;;16.00;43.90;;;;;;5417489;26;19965;-73
2024/04/20 10:32:50;;;;;;;;;;;15.90;44.40;;;;;;5449069;26;19936;-73
2024/04/20 10:35:20;;;;;;;;;;;15.90;44.10;;;;;;5449000;26;19925;-73
2024/04/20 10:37:56;;;;;;;;;;;15.80;44.70;;;;;;5449393;26;19957;-73
2024/04/20 10:40:26;;;;;;;;;;;16.00;44.70;;;;;;5446709;26;19934;-74
2024/04/20 10:42:52;;;;;;;;;;;16.10;44.30;;;;;;5449199;26;19924;-73
2024/04/20 10:45:20;;;;;;;;;;;16.10;43.50;;;;;;5449094;26;19931;-73
2024/04/20 10:47:46;;;;;;;;;;;16.30;43.60;;;;;;5449072;26;19925;-73
2024/04/20 10:50:11;;;;;;;;;;;16.40;42.90;;;;;;5446811;26;19931;-73
2024/04/20 10:52:37;;;;;;;;;;;16.60;42.70;;;;;;5449142;26;20331;-74
2024/04/20 10:55:15;;;;;;;;;;;16.60;42.80;;;;;;5447007;26;20267;-74
2024/04/20 10:57:42;;;;;;;;;;;17.00;44.20;;;;;;5448861;26;19924;-73
2024/04/20 11:00:08;;;;;;;;;;;17.50;43.80;;;;;;5448418;26;19925;-72
2024/04/20 11:02:36;;;;;;;;;;;17.60;40.60;;;;;;5448771;26;19924;-73
2024/04/20 11:05:05;;;;;;;;;;;17.30;40.90;;;;;;5448545;26;19935;-73
2024/04/20 11:07:30;;;;;;;;;;;16.90;42.60;;;;;;5448530;26;19951;-73
2024/04/20 11:09:57;;;;;;;;;;;16.50;44.50;;;;;;5448437;26;19924;-74
2024/04/20 11:12:22;;;;;;;;;;;16.00;46.60;;;;;;5450773;26;19932;-74
2024/04/20 11:14:58;;;;;;;;;;;15.70;46.70;;;;;;5452140;26;20437;-74
2024/04/20 11:17:26;;;;;;;;;;;15.50;47.30;;;;;;5452117;26;20031;-73
2024/04/20 11:19:51;;;;;;;;;;;15.20;49.60;;;;;;5452193;26;20454;-74
2024/04/20 11:22:17;;;;;;;;;;;14.80;50.30;;;;;;5420139;26;19993;-73
2024/04/20 11:24:45;;;;;;;;;;;14.40;51.00;;;;;;5451689;26;20482;-73
2024/04/20 11:27:14;;;;;;;;;;;14.40;52.20;;;;;;5450076;26;19924;-74
2024/04/20 11:29:40;;;;;;;;;;;14.20;54.50;;;;;;5452105;26;19924;-73
2024/04/20 11:32:06;;;;;;;;;;;14.20;54.50;;;;;;5450497;26;19931;-73
2024/04/20 11:34:32;;;;;;;;;;;14.10;54.10;;;;;;5452180;26;19926;-74
2024/04/20 11:36:58;;;;;;;;;;;14.30;52.40;;;;;;5452098;26;20254;-73
2024/04/20 11:39:23;;;;;;;;;;;14.60;51.70;;;;;;5451913;26;19924;-73
2024/04/20 11:41:49;;;;;;;;;;;15.10;48.60;;;;;;5451852;26;19924;-74
2024/04/20 11:44:15;;;;;;;;;;;15.50;47.50;;;;;;5451824;26;19932;-73
2024/04/20 11:46:40;;;;;;;;;;;16.00;46.40;;;;;;5452204;26;19948;-74
2024/04/20 11:49:12;;;;;;;;;;;16.30;44.00;;;;;;5451961;26;19924;-74
2024/04/20 11:54:22;;;;;;;;;;;16.40;42.70;;;;;;5452103;26;19935;-73
2024/04/20 11:56:48;;;;;;;;;;;16.40;45.30;;;;;;5420136;26;19924;-73
2024/04/20 11:59:14;;;;;;;;;;;16.50;44.80;;;;;;5451761;26;20376;-73
2024/04/20 12:01:40;;;;;;;;;;;16.40;46.50;;;;;;5451475;26;19936;-73
2024/04/20 12:04:06;;;;;;;;;;;16.50;47.10;;;;;;5451507;26;20349;-73
2024/04/20 12:06:32;;;;;;;;;;;16.30;47.10;;;;;;5451716;26;19932;-74
2024/04/20 12:08:57;;;;;;;;;;;16.10;49.30;;;;;;5451522;26;19948;-73
2024/04/20 12:11:23;;;;;;;;;;;16.10;49.10;;;;;;5451574;26;19966;-74
2024/04/20 12:13:49;;;;;;;;;;;16.10;48.90;;;;;;5451471;26;20669;-73
2024/04/20 12:16:15;;;;;;;;;;;16.00;49.30;;;;;;5451492;26;20254;-73
2024/04/20 12:18:42;;;;;;;;;;;15.80;49.50;;;;;;5451546;26;19932;-72
2024/04/20 12:21:13;;;;;;;;;;;15.60;49.70;;;;;;5451328;26;19924;-73
2024/04/20 12:23:41;;;;;;;;;;;15.30;50.00;;;;;;5449108;26;19935;-73
2024/04/20 12:26:08;;;;;;;;;;;14.90;49.80;;;;;;5443062;26;19993;-73
2024/04/20 12:28:34;;;;;;;;;;;14.70;50.00;;;;;;5451058;26;19988;-73
2024/04/20 12:31:00;;;;;;;;;;;14.60;51.60;;;;;;5451336;26;20331;-73
2024/04/20 12:33:26;;;;;;;;;;;14.60;51.80;;;;;;5451030;26;19924;-73
2024/04/20 12:35:52;;;;;;;;;;;14.80;51.60;;;;;;5450685;26;20362;-73
2024/04/20 12:38:19;;;;;;;;;;;14.90;51.40;;;;;;5451003;26;19932;-73
2024/04/20 12:40:45;;;;;;;;;;;15.00;51.00;;;;;;5451158;26;19931;-73
2024/04/20 12:43:10;;;;;;;;;;;15.30;51.60;;;;;;5450927;26;19925;-73
2024/04/20 12:45:36;;;;;;;;;;;15.40;49.80;;;;;;5448971;26;19993;-73
2024/04/20 12:48:02;;;;;;;;;;;15.40;48.00;;;;;;5450869;26;20033;-74
2024/04/20 12:50:28;;;;;;;;;;;15.40;48.90;;;;;;5450560;26;19924;-74
2024/04/20 12:52:53;;;;;;;;;;;15.30;48.30;;;;;;5450324;26;19933;-73
2024/04/20 12:55:21;;;;;;;;;;;15.20;49.00;;;;;;5450774;26;19924;-73
2024/04/20 12:57:47;;;;;;;;;;;15.30;48.60;;;;;;5450899;26;19924;-74
2024/04/20 13:00:14;;;;;;;;;;;15.40;47.70;;;;;;5450667;26;20331;-73
2024/04/20 13:02:39;;;;;;;;;;;15.70;49.80;;;;;;5450967;26;19931;-73
2024/04/20 13:05:05;;;;;;;;;;;16.20;49.30;;;;;;5450417;26;19924;-73
2024/04/20 13:07:31;;;;;;;;;;;16.70;47.60;;;;;;5450687;26;20335;-74
2024/04/20 13:09:57;;;;;;;;;;;17.00;45.50;;;;;;5450299;26;19924;-74
2024/04/20 13:12:25;;;;;;;;;;;16.90;43.40;;;;;;5450646;26;19936;-72
2024/04/20 13:14:50;;;;;;;;;;;16.70;45.30;;;;;;5450229;26;19952;-73
2024/04/20 13:17:17;;;;;;;;;;;16.50;46.00;;;;;;5450434;26;19993;-74
2024/04/20 13:19:44;;;;;;;;;;;16.30;46.50;;;;;;5449806;26;19925;-74
2024/04/20 13:22:10;;;;;;;;;;;16.20;45.50;;;;;;5450153;26;19932;-73
2024/04/20 13:24:35;;;;;;;;;;;15.90;45.80;;;;;;5449951;26;20381;-73
2024/04/20 13:27:01;;;;;;;;;;;15.70;45.90;;;;;;5418399;26;19925;-74
2024/04/20 13:29:27;;;;;;;;;;;15.40;45.60;;;;;;5450178;26;19931;-73
2024/04/20 13:31:52;;;;;;;;;;;15.10;45.80;;;;;;5450018;26;19924;-72
2024/04/20 13:34:18;;;;;;;;;;;14.80;47.90;;;;;;5410873;26;19925;-74
2024/04/20 13:36:46;;;;;;;;;;;14.70;49.50;;;;;;5414188;26;19925;-73
2024/04/20 13:39:12;;;;;;;;;;;14.70;49.60;;;;;;5414598;26;20502;-73
2024/04/20 13:41:38;;;;;;;;;;;14.90;50.10;;;;;;5414409;26;19924;-73
2024/04/20 13:44:04;;;;;;;;;;;15.00;49.60;;;;;;5414056;26;19925;-74
2024/04/20 13:46:30;;;;;;;;;;;15.10;49.30;;;;;;5412105;26;19932;-73
2024/04/20 13:48:57;;;;;;;;;;;15.20;49.40;;;;;;5414001;26;19925;-74
2024/04/20 13:51:25;;;;;;;;;;;15.50;47.50;;;;;;5412240;26;19925;-73
2024/04/20 13:53:51;;;;;;;;;;;15.60;48.60;;;;;;5442336;26;19994;-72
2024/04/20 13:56:17;;;;;;;;;;;15.70;48.00;;;;;;5413986;26;20109;-74
2024/04/20 13:58:43;;;;;;;;;;;15.80;45.90;;;;;;5413963;26;20692;-74
2024/04/20 14:01:09;;;;;;;;;;;16.00;46.00;;;;;;5411848;26;20632;-73
2024/04/20 14:03:35;;;;;;;;;;;16.10;44.90;;;;;;5413661;26;19967;-73
2024/04/20 14:06:01;;;;;;;;;;;16.20;44.70;;;;;;5412018;26;19928;-73
2024/04/20 14:08:26;;;;;;;;;;;16.30;42.60;;;;;;5414231;26;20257;-73
2024/04/20 14:11:02;;;;;;;;;;;16.50;41.90;;;;;;5413883;26;19925;-73
2024/04/20 14:13:27;;;;;;;;;;;16.50;43.30;;;;;;5413743;26;19925;-73
2024/04/20 14:15:53;;;;;;;;;;;16.30;44.30;;;;;;5413633;26;19932;-73
2024/04/20 14:18:19;;;;;;;;;;;16.40;44.20;;;;;;5413547;26;19937;-74